EDT,Max TemperatureF,Mean TemperatureF,Min TemperatureF,Max Dew PointF,MeanDew PointF,Min DewpointF,Max Humidity, Mean Humidity, Min Humidity, Max Sea Level PressureIn, Mean Sea Level PressureIn, Min Sea Level PressureIn, Max VisibilityMiles, Mean VisibilityMiles, Min VisibilityMiles, Max Wind SpeedMPH, Mean Wind SpeedMPH, Max Gust SpeedMPH,PrecipitationIn, CloudCover, Events, WindDirDegrees
2013-3-1,42,38,34,34,31,28,89,75,60,30.00,29.98,29.95,10,8,3,13,6,15,0.03,8,Rain-Snow,250
2013-3-2,40,36,31,32,29,17,96,80,63,30.08,29.98,29.93,10,5,1,15,6,21,0.12,8,Snow,286
2013-3-3,37,32,26,21,16,13,75,58,41,30.12,30.09,30.06,10,10,6,14,5,17,T,7,Snow,346
2013-3-4,50,35,20,25,18,11,81,52,23,30.20,30.12,30.01,10,10,10,8,2,10,0.00,1,,8
2013-3-5,50,42,34,46,37,24,96,74,51,30.01,29.82,29.63,10,4,1,33,10,43,1.43,8,Rain-Snow-Thunderstorm,6
2013-3-6,35,33,30,29,26,23,85,80,75,30.27,30.06,29.87,10,5,1,26,10,33,0.01,8,Snow,263
2013-3-7,38,36,33,29,27,25,82,71,59,30.37,30.32,30.24,10,10,7,14,8,16,T,8,Snow,20
2013-3-8,52,40,28,26,24,23,78,56,33,30.42,30.35,30.30,10,10,10,15,9,21,0.00,1,,35
2013-3-9,63,48,32,33,28,25,75,51,27,30.32,30.25,30.17,10,10,10,13,4,15,0.00,2,,39
2013-3-10,72,56,40,38,33,26,79,50,21,30.15,30.06,29.95,10,10,9,16,5,21,0.00,4,,173
2013-3-11,66,55,44,52,47,36,93,65,36,29.95,29.84,29.75,10,6,1,29,14,39,0.90,7,Rain-Thunderstorm,212
2013-3-12,53,46,38,39,32,28,83,64,44,30.12,30.01,29.89,10,10,10,12,6,14,T,5,Rain,253
2013-3-13,46,39,31,29,22,17,82,59,36,30.34,30.20,30.09,10,10,10,23,11,30,0.00,4,,267
2013-3-14,45,35,25,24,16,13,63,46,29,30.42,30.34,30.26,10,10,10,14,6,17,0.00,5,,326
2013-3-15,68,51,33,42,34,25,82,58,34,30.26,30.07,29.89,10,10,10,24,10,28,T,4,,227
2013-3-16,76,67,57,47,43,40,52,44,35,29.89,29.84,29.75,10,10,10,29,16,35,0.00,5,,224
2013-3-17,73,64,55,49,45,43,62,50,38,29.94,29.88,29.82,10,10,10,23,11,28,0.00,6,,228
2013-3-18,66,59,51,54,50,45,96,79,62,29.88,29.81,29.76,10,8,1,21,9,28,0.90,7,Rain-Thunderstorm,244
2013-3-19,59,49,39,52,30,10,93,56,18,30.14,30.03,29.86,10,10,4,18,7,29,T,4,Rain,264
2013-3-20,56,45,33,31,17,11,70,45,20,30.14,30.05,29.89,10,10,10,26,8,35,T,5,,300
2013-3-21,42,33,24,18,10,6,55,41,27,30.04,29.99,29.96,10,10,10,20,6,29,0.00,1,,303
2013-3-22,45,36,26,25,17,12,58,45,31,30.09,30.04,30.01,10,10,10,9,3,15,0.00,6,,19
2013-3-23,54,46,38,41,36,23,92,69,45,30.03,29.95,29.78,10,8,2,14,6,17,0.08,8,Rain,37
2013-3-24,57,49,40,52,44,31,93,78,62,29.80,29.56,29.37,10,6,1,30,9,39,0.80,8,Rain,358
2013-3-25,40,36,32,31,27,24,85,75,64,30.04,29.79,29.63,10,4,1,29,17,36,T,8,Snow,243
2013-3-26,40,36,31,30,27,23,92,73,54,30.30,30.13,30.03,10,5,1,15,7,20,T,8,Snow,272
2013-3-27,50,41,31,27,23,18,75,52,29,30.35,30.31,30.27,10,10,10,15,5,18,0.00,4,,286
2013-3-28,57,42,27,29,21,13,85,52,19,30.38,30.31,30.25,10,10,10,12,2,17,0.00,0,,318
2013-3-29,49,40,30,41,32,21,96,71,45,30.38,30.31,30.25,10,8,2,9,3,12,0.29,6,Rain,57
2013-3-30,61,52,42,49,42,39,96,74,51,30.24,30.16,30.00,10,5,1,9,4,13,0.38,7,Rain,34
2013-3-31,63,57,50,55,52,48,96,83,69,29.98,29.90,29.84,10,7,1,18,8,24,0.55,8,Rain,235